Time;durP1;ratioP1;P1;durP2;ratioP2;P2;SDS_P1;SDS_P2;PMS_P1;PMS_P2;Temp;Humidity;BMP_temperature;BMP_pressure;BME280_temperature;BME280_humidity;BME280_pressure;Samples;Min_cycle;Max_cycle;Signal;HPM_P1;HPM_P2
2023/07/05 00:01:18;;;;;;;24.40;19.50;;;;;;;14.80;68.84;100417.83;102526;278;93900;-55
2023/07/05 00:03:57;;;;;;;26.10;19.90;;;;;;;14.74;68.95;100419.70;102586;278;96903;-55
2023/07/05 00:06:40;;;;;;;26.00;20.80;;;;;;;14.70;69.19;100421.60;102513;278;119535;-56
2023/07/05 00:09:25;;;;;;;27.40;21.10;;;;;;;14.64;69.33;100424.56;102533;278;105173;-55
2023/07/05 00:12:05;;;;;;;24.20;19.30;;;;;;;14.57;69.37;100426.71;102516;278;114277;-56
2023/07/05 00:14:44;;;;;;;25.40;18.70;;;;;;;14.52;69.48;100427.07;102549;278;96585;-56
2023/07/05 00:17:27;;;;;;;23.40;19.10;;;;;;;14.49;69.76;100424.79;102572;278;98059;-56
2023/07/05 00:20:08;;;;;;;28.60;18.90;;;;;;;14.43;70.04;100425.38;102528;278;122073;-55
2023/07/05 00:22:49;;;;;;;23.50;19.00;;;;;;;14.41;70.14;100428.86;102499;278;106197;-55
2023/07/05 00:25:25;;;;;;;25.00;19.40;;;;;;;14.42;70.16;100429.61;102612;278;114109;-55
2023/07/05 00:28:03;;;;;;;27.40;19.80;;;;;;;14.39;70.30;100428.49;102582;278;93833;-56
2023/07/05 00:30:45;;;;;;;26.40;19.20;;;;;;;14.39;70.66;100429.69;102633;278;97260;-56
2023/07/05 00:33:25;;;;;;;25.70;19.70;;;;;;;14.32;70.68;100429.37;102545;278;120461;-56
2023/07/05 00:36:01;;;;;;;24.70;20.00;;;;;;;14.29;70.64;100429.83;102535;278;106230;-56
2023/07/05 00:38:35;;;;;;;29.90;21.80;;;;;;;14.27;70.65;100425.52;102638;278;114479;-55
2023/07/05 00:41:18;;;;;;;27.00;20.40;;;;;;;14.24;70.86;100427.91;102518;278;97306;-55
2023/07/05 00:43:55;;;;;;;24.70;20.50;;;;;;;14.20;71.09;100426.75;102619;278;96426;-54
2023/07/05 00:46:35;;;;;;;23.90;20.00;;;;;;;14.17;71.20;100426.83;102572;278;119756;-56
2023/07/05 00:49:18;;;;;;;30.70;20.80;;;;;;;14.11;71.23;100420.99;102604;278;105638;-55
2023/07/05 00:51:58;;;;;;;25.10;20.60;;;;;;;14.05;71.43;100428.98;102612;278;114004;-55
2023/07/05 00:54:47;;;;;;;27.60;21.60;;;;;;;14.03;71.40;100425.56;102545;278;95767;-56
2023/07/05 00:57:30;;;;;;;26.60;20.50;;;;;;;14.01;71.62;100429.44;102515;278;96006;-57
2023/07/05 01:00:12;;;;;;;28.30;21.40;;;;;;;13.99;71.83;100431.98;102625;278;120457;-56
2023/07/05 01:02:57;;;;;;;27.00;21.30;;;;;;;13.99;72.02;100437.55;102498;278;105312;-55
2023/07/05 01:05:34;;;;;;;29.30;22.00;;;;;;;13.99;71.94;100431.80;102545;278;115018;-56
2023/07/05 01:08:10;;;;;;;26.60;21.70;;;;;;;13.95;72.04;100436.69;102537;278;93823;-56
2023/07/05 01:10:58;;;;;;;27.50;21.40;;;;;;;13.88;72.29;100435.39;102601;278;95606;-55
2023/07/05 01:13:45;;;;;;;27.20;21.50;;;;;;;13.81;72.30;100430.48;102516;278;120167;-56
2023/07/05 01:16:33;;;;;;;28.30;21.00;;;;;;;13.74;72.48;100430.92;102555;278;105450;-56
2023/07/05 01:19:34;;;;;;;28.40;22.50;;;;;;;13.69;72.55;100432.85;102621;278;113790;-56
2023/07/05 01:22:34;;;;;;;28.90;21.50;;;;;;;13.64;72.56;100432.67;102526;278;96501;-56
2023/07/05 01:25:25;;;;;;;27.30;21.70;;;;;;;13.57;72.67;100433.89;102459;280;98321;-55
2023/07/05 01:28:37;;;;;;;25.90;20.10;;;;;;;13.54;72.69;100434.69;102567;278;120860;-54
2023/07/05 01:31:41;;;;;;;28.50;22.00;;;;;;;13.50;72.84;100432.34;102580;278;102823;-53
2023/07/05 01:34:33;;;;;;;27.70;22.00;;;;;;;13.46;73.05;100430.86;102563;278;115288;-57
2023/07/05 01:37:21;;;;;;;25.40;20.70;;;;;;;13.43;73.25;100425.19;102573;278;95767;-56
2023/07/05 01:39:57;;;;;;;27.10;20.80;;;;;;;13.41;73.41;100428.16;102458;278;98326;-56
2023/07/05 01:42:35;;;;;;;26.50;20.90;;;;;;;13.39;73.17;100423.36;102557;278;119207;-57
2023/07/05 01:45:13;;;;;;;25.60;19.80;;;;;;;13.35;73.43;100428.27;102535;278;106087;-55
2023/07/05 01:47:57;;;;;;;27.20;20.10;;;;;;;13.33;73.48;100432.27;102525;278;114595;-55
2023/07/05 01:50:43;;;;;;;24.60;18.70;;;;;;;13.31;73.44;100429.80;102519;278;95245;-54
2023/07/05 01:53:26;;;;;;;;;;;;;;;13.27;73.49;100425.33;102519;278;96501;-54
2023/07/05 01:56:09;;;;;;;22.30;18.70;;;;;;;13.25;73.61;100429.63;102547;278;118782;-55
2023/07/05 01:58:49;;;;;;;25.80;19.20;;;;;;;13.20;73.76;100425.90;102547;278;105384;-56
2023/07/05 02:01:35;;;;;;;26.00;19.70;;;;;;;13.17;73.85;100426.23;102429;278;114208;-56
2023/07/05 02:04:13;;;;;;;27.00;19.20;;;;;;;13.14;74.05;100430.02;102589;278;96367;-56
2023/07/05 02:06:54;;;;;;;27.90;19.60;;;;;;;13.12;74.14;100432.02;102429;280;97041;-56
2023/07/05 02:09:37;;;;;;;26.30;19.20;;;;;;;13.07;74.14;100431.13;102602;278;120255;-55
2023/07/05 02:12:14;;;;;;;25.20;19.20;;;;;;;13.07;74.15;100434.25;102401;278;105795;-55
2023/07/05 02:14:51;;;;;;;29.30;18.80;;;;;;;13.09;74.26;100437.10;102663;278;112925;-56
2023/07/05 02:17:31;;;;;;;27.30;19.90;;;;;;;13.11;74.28;100437.98;102564;278;93875;-55
2023/07/05 02:20:09;;;;;;;23.40;18.90;;;;;;;13.12;74.45;100437.24;102624;278;97070;-54
2023/07/05 02:22:51;;;;;;;27.70;19.60;;;;;;;13.10;74.69;100441.95;102594;278;120680;-54
2023/07/05 02:25:29;;;;;;;28.10;19.60;;;;;;;13.06;74.91;100444.20;102596;278;105562;-55
2023/07/05 02:28:11;;;;;;;27.60;20.30;;;;;;;13.00;75.03;100447.93;102521;278;114617;-56
2023/07/05 02:30:49;;;;;;;27.00;19.90;;;;;;;12.97;75.06;100449.05;102500;278;97213;-54
2023/07/05 02:33:28;;;;;;;24.10;19.00;;;;;;;12.94;75.16;100447.58;102515;278;97472;-54
2023/07/05 02:36:10;;;;;;;29.10;19.70;;;;;;;12.90;75.19;100451.36;102508;278;121004;-55
2023/07/05 02:38:46;;;;;;;25.40;18.70;;;;;;;12.91;75.35;100455.71;102585;278;106088;-54
2023/07/05 02:41:21;;;;;;;28.50;19.10;;;;;;;12.90;75.30;100454.37;102493;278;113467;-56
2023/07/05 02:44:03;;;;;;;25.10;19.40;;;;;;;12.92;75.39;100455.72;102580;278;96308;-55
2023/07/05 02:46:47;;;;;;;23.60;18.80;;;;;;;12.93;75.51;100459.26;102523;278;97214;-55
2023/07/05 02:49:27;;;;;;;26.70;19.00;;;;;;;12.94;75.55;100459.21;102545;278;121109;-56
2023/07/05 02:52:05;;;;;;;23.40;18.40;;;;;;;12.95;75.57;100461.65;102603;278;105329;-55
2023/07/05 02:54:44;;;;;;;26.00;18.60;;;;;;;12.97;75.70;100463.77;102574;278;113899;-55
2023/07/05 02:57:23;;;;;;;25.10;19.10;;;;;;;13.01;75.66;100466.13;102569;278;95302;-55
2023/07/05 03:00:07;;;;;;;24.30;19.30;;;;;;;13.03;75.90;100469.09;102595;278;97765;-55
2023/07/05 03:02:46;;;;;;;22.90;18.30;;;;;;;13.06;75.88;100469.28;102597;278;120366;-56
2023/07/05 03:05:34;;;;;;;27.20;19.50;;;;;;;13.11;76.19;100471.02;102553;278;105323;-56
2023/07/05 03:08:14;;;;;;;25.30;18.60;;;;;;;13.17;76.09;100468.66;102563;278;113729;-55
2023/07/05 03:10:55;;;;;;;27.10;19.10;;;;;;;13.23;76.13;100462.98;102559;278;97027;-54
2023/07/05 03:13:32;;;;;;;24.40;18.60;;;;;;;13.30;76.08;100468.49;102590;278;96189;-54
2023/07/05 03:16:07;;;;;;;24.60;18.10;;;;;;;13.37;76.27;100466.80;102377;269;119698;-56
2023/07/05 03:18:47;;;;;;;24.70;18.60;;;;;;;13.47;76.24;100466.27;102600;278;104187;-55
2023/07/05 03:21:24;;;;;;;26.20;19.50;;;;;;;13.54;76.27;100464.91;102484;278;114540;-55
2023/07/05 03:24:02;;;;;;;23.70;19.20;;;;;;;13.61;76.24;100466.72;102559;278;95090;-55
2023/07/05 03:26:38;;;;;;;25.80;18.90;;;;;;;13.67;76.36;100465.38;102532;278;97584;-54
2023/07/05 03:29:20;;;;;;;27.10;18.20;;;;;;;13.74;76.48;100467.85;102512;278;120432;-56
2023/07/05 03:32:07;;;;;;;24.80;18.30;;;;;;;13.84;76.47;100464.98;102490;278;104798;-56
2023/07/05 03:34:47;;;;;;;26.60;18.80;;;;;;;13.98;76.45;100465.34;102591;278;114581;-56
2023/07/05 03:37:25;;;;;;;21.20;17.90;;;;;;;14.21;76.33;100464.04;102567;278;96633;-55
2023/07/05 03:40:02;;;;;;;25.00;18.30;;;;;;;14.63;76.16;100463.59;102611;278;98448;-54
2023/07/05 03:42:39;;;;;;;25.30;18.50;;;;;;;15.17;75.73;100460.98;101901;280;655972;-53
2023/07/05 03:45:17;;;;;;;24.50;18.20;;;;;;;15.71;75.21;100464.88;102657;278;105414;-54
2023/07/05 03:47:53;;;;;;;24.30;19.30;;;;;;;16.30;74.55;100460.64;102579;278;114746;-54
2023/07/05 03:50:32;;;;;;;22.90;18.40;;;;;;;16.83;73.83;100470.25;102574;278;94260;-56
2023/07/05 03:53:13;;;;;;;26.00;18.30;;;;;;;17.27;72.96;100474.24;102605;278;97991;-55
2023/07/05 03:55:53;;;;;;;21.80;17.10;;;;;;;17.71;72.06;100476.94;102539;278;119965;-56
2023/07/05 03:58:37;;;;;;;24.90;18.30;;;;;;;18.13;71.47;100473.31;102580;278;105564;-56
2023/07/05 04:01:19;;;;;;;22.70;17.30;;;;;;;18.53;70.77;100471.96;102511;278;114528;-55
2023/07/05 04:04:01;;;;;;;24.30;16.80;;;;;;;18.94;69.79;100470.08;102557;278;93908;-54
2023/07/05 04:06:38;;;;;;;21.60;16.10;;;;;;;19.32;69.00;100472.17;102509;278;98052;-54
2023/07/05 04:09:12;;;;;;;21.80;16.10;;;;;;;19.73;68.35;100472.16;102600;278;120129;-54
2023/07/05 04:11:50;;;;;;;20.40;14.70;;;;;;;20.13;67.75;100473.63;102570;278;105852;-55
2023/07/05 04:14:32;;;;;;;17.10;14.70;;;;;;;20.49;66.81;100470.64;102583;271;113161;-55
2023/07/05 04:17:08;;;;;;;18.10;14.30;;;;;;;20.86;66.02;100473.70;102540;278;93234;-55
2023/07/05 04:19:46;;;;;;;21.80;16.10;;;;;;;21.11;65.59;100468.15;102602;278;95627;-55
2023/07/05 04:22:22;;;;;;;19.50;14.90;;;;;;;21.47;65.06;100472.40;102582;278;121153;-56
2023/07/05 04:25:04;;;;;;;19.30;15.10;;;;;;;21.78;64.17;100475.69;102617;278;105791;-56
2023/07/05 04:27:40;;;;;;;17.20;14.70;;;;;;;21.71;63.20;100477.89;102579;278;111923;-57
2023/07/05 04:30:18;;;;;;;17.20;13.60;;;;;;;21.25;62.82;100476.07;102637;278;94657;-55
2023/07/05 04:32:54;;;;;;;16.90;14.70;;;;;;;20.88;63.09;100478.71;102598;278;97661;-55
2023/07/05 04:35:31;;;;;;;17.20;14.40;;;;;;;20.67;63.46;100473.92;102622;278;120866;-55
2023/07/05 04:38:11;;;;;;;16.90;13.80;;;;;;;20.49;63.64;100479.59;102573;278;105540;-56
2023/07/05 04:40:49;;;;;;;17.70;14.60;;;;;;;20.44;63.62;100478.42;102606;278;115167;-56
2023/07/05 04:43:28;;;;;;;19.70;15.30;;;;;;;20.41;63.64;100478.44;102526;278;92466;-55
2023/07/05 04:46:04;;;;;;;17.30;13.30;;;;;;;20.33;63.72;100476.17;102527;278;96016;-56
2023/07/05 04:48:41;;;;;;;16.90;14.00;;;;;;;20.36;63.70;100475.07;102593;278;119464;-55
2023/07/05 04:51:30;;;;;;;16.60;14.00;;;;;;;20.94;63.46;100478.52;102552;278;105101;-55
2023/07/05 04:54:05;;;;;;;16.10;13.60;;;;;;;22.00;62.51;100480.14;102557;278;111650;-55
2023/07/05 04:56:39;;;;;;;15.90;13.90;;;;;;;22.96;61.25;100481.04;102518;267;93654;-55
2023/07/05 04:59:19;;;;;;;17.70;12.90;;;;;;;23.72;59.86;100476.56;102556;278;97995;-56
2023/07/05 05:01:57;;;;;;;18.50;14.10;;;;;;;24.41;58.76;100477.70;102548;278;120444;-56
2023/07/05 05:04:42;;;;;;;18.50;13.00;;;;;;;25.14;57.67;100477.51;102560;278;106050;-55
2023/07/05 05:07:21;;;;;;;15.30;13.10;;;;;;;25.94;56.06;100473.84;102581;278;114796;-54
2023/07/05 05:10:01;;;;;;;14.90;11.30;;;;;;;26.63;54.40;100479.50;102612;278;93869;-57
2023/07/05 05:12:39;;;;;;;14.20;11.80;;;;;;;27.28;52.72;100472.48;102597;278;98047;-56
2023/07/05 05:15:14;;;;;;;14.70;10.70;;;;;;;27.80;50.73;100467.20;102618;278;121458;-55
2023/07/05 05:17:49;;;;;;;13.60;10.70;;;;;;;28.25;48.93;100468.80;102611;278;104901;-54
2023/07/05 05:20:25;;;;;;;12.50;10.00;;;;;;;28.73;47.31;100478.95;102630;278;114764;-56
2023/07/05 05:23:06;;;;;;;13.80;10.10;;;;;;;29.01;46.21;100471.27;102579;278;93699;-56
2023/07/05 05:25:46;;;;;;;12.10;9.60;;;;;;;29.52;44.68;100471.15;102592;278;97537;-56
2023/07/05 05:28:24;;;;;;;14.90;10.20;;;;;;;30.06;43.40;100477.39;102548;275;118105;-57
2023/07/05 05:31:14;;;;;;;13.80;9.10;;;;;;;30.37;42.09;100472.90;102541;278;105655;-56
2023/07/05 05:33:59;;;;;;;14.30;10.30;;;;;;;30.72;41.52;100476.24;102557;278;114070;-56
2023/07/05 05:36:42;;;;;;;13.10;9.60;;;;;;;31.03;40.97;100474.02;102526;278;93426;-55
2023/07/05 05:39:19;;;;;;;11.30;8.60;;;;;;;31.41;39.49;100475.14;102595;278;96921;-55
2023/07/05 05:41:59;;;;;;;12.10;9.10;;;;;;;31.65;38.69;100481.13;102537;278;120149;-55
2023/07/05 05:44:37;;;;;;;12.80;8.30;;;;;;;31.88;37.63;100474.69;102420;280;108466;-55
2023/07/05 05:47:13;;;;;;;11.30;8.60;;;;;;;32.10;36.91;100469.60;102474;278;114365;-57
2023/07/05 05:49:49;;;;;;;12.10;8.30;;;;;;;32.31;36.38;100474.92;102359;280;96942;-55
2023/07/05 05:52:24;;;;;;;10.90;7.90;;;;;;;32.30;35.88;100475.52;102533;278;97264;-55
2023/07/05 05:55:01;;;;;;;12.40;7.90;;;;;;;32.41;34.90;100475.87;102606;278;121367;-57
2023/07/05 05:57:38;;;;;;;12.90;8.00;;;;;;;32.52;34.45;100475.45;102599;276;105626;-56
2023/07/05 06:00:16;;;;;;;11.90;8.40;;;;;;;32.85;34.31;100477.45;102555;278;114185;-58
2023/07/05 06:02:59;;;;;;;14.50;8.60;;;;;;;33.07;33.36;100475.77;102548;278;93237;-59
2023/07/05 06:05:37;;;;;;;10.50;8.10;;;;;;;33.29;32.79;100471.69;102605;278;97962;-57
2023/07/05 06:08:11;;;;;;;11.60;8.10;;;;;;;33.72;32.54;100471.34;102598;278;121071;-57
2023/07/05 06:11:04;;;;;;;10.30;8.00;;;;;;;34.07;32.28;100467.42;102565;278;104608;-57
2023/07/05 06:13:44;;;;;;;10.40;8.30;;;;;;;34.09;31.22;100470.61;102417;272;114741;-56
2023/07/05 06:16:27;;;;;;;12.70;8.90;;;;;;;34.19;31.07;100469.73;102496;278;93201;-59
2023/07/05 06:19:07;;;;;;;13.10;8.40;;;;;;;34.36;30.51;100469.39;102555;278;97872;-58
2023/07/05 06:21:45;;;;;;;9.80;8.00;;;;;;;34.52;29.98;100471.00;102557;278;120854;-58
2023/07/05 06:24:21;;;;;;;10.50;7.90;;;;;;;34.76;30.14;100472.42;102411;278;105591;-59
2023/07/05 06:27:03;;;;;;;10.80;8.80;;;;;;;34.80;29.77;100470.63;102521;278;114335;-59
2023/07/05 06:29:42;;;;;;;9.20;7.70;;;;;;;35.03;29.29;100472.69;102505;278;93692;-58
2023/07/05 06:32:22;;;;;;;10.10;7.80;;;;;;;35.11;29.24;100472.20;102557;278;97970;-58
2023/07/05 06:35:04;;;;;;;10.70;8.60;;;;;;;35.36;29.12;100471.55;102570;278;120785;-61
2023/07/05 06:37:48;;;;;;;9.30;7.40;;;;;;;35.65;28.29;100466.85;102530;278;105008;-61
2023/07/05 06:40:27;;;;;;;9.60;7.50;;;;;;;35.75;28.40;100464.90;102614;278;115091;-62
2023/07/05 06:43:07;;;;;;;11.70;8.10;;;;;;;35.99;28.08;100464.84;102654;274;94413;-61
2023/07/05 06:45:52;;;;;;;10.10;8.20;;;;;;;36.10;26.96;100460.81;102640;286;96861;-61
2023/07/05 06:48:33;;;;;;;9.60;7.60;;;;;;;36.13;26.81;100467.02;102625;278;121251;-60
2023/07/05 06:51:16;;;;;;;10.30;8.10;;;;;;;36.18;25.97;100465.85;102618;278;105763;-63
2023/07/05 06:53:54;;;;;;;9.50;7.70;;;;;;;35.90;25.58;100468.50;102581;278;114470;-61
2023/07/05 06:56:31;;;;;;;10.40;7.60;;;;;;;36.02;25.52;100465.82;102542;278;93134;-62
2023/07/05 06:59:10;;;;;;;10.90;7.80;;;;;;;36.27;25.23;100456.70;102563;278;97732;-63
2023/07/05 07:01:45;;;;;;;8.80;6.70;;;;;;;36.56;25.18;100458.11;102540;278;119457;-58
2023/07/05 07:04:24;;;;;;;11.60;7.40;;;;;;;36.66;24.78;100457.73;102610;278;104697;-62
2023/07/05 07:07:02;;;;;;;10.40;7.70;;;;;;;36.82;25.18;100458.05;102505;278;112909;-56
2023/07/05 07:09:44;;;;;;;9.60;7.90;;;;;;;36.79;24.85;100464.64;102575;278;93196;-57
2023/07/05 07:12:27;;;;;;;9.40;7.30;;;;;;;36.96;24.54;100460.75;102561;278;98522;-56
2023/07/05 07:15:09;;;;;;;8.70;7.00;;;;;;;37.18;24.23;100459.70;102538;278;120897;-55
2023/07/05 07:17:47;;;;;;;10.30;7.30;;;;;;;37.14;24.36;100461.61;102445;278;104236;-55
2023/07/05 07:20:32;;;;;;;9.90;7.70;;;;;;;37.42;24.43;100461.02;102610;278;114645;-56
2023/07/05 07:23:08;;;;;;;9.60;8.10;;;;;;;37.83;23.96;100463.16;102600;278;94556;-56
2023/07/05 07:25:46;;;;;;;10.20;8.50;;;;;;;38.00;23.58;100459.84;102618;278;97154;-56
2023/07/05 07:28:29;;;;;;;11.10;8.60;;;;;;;37.74;23.55;100459.02;102528;278;121387;-55
2023/07/05 07:31:17;;;;;;;11.20;8.50;;;;;;;37.78;23.31;100462.23;102580;278;105873;-55
2023/07/05 07:33:54;;;;;;;12.30;9.30;;;;;;;36.95;23.26;100451.58;102624;278;113954;-55
2023/07/05 07:36:35;;;;;;;10.60;9.20;;;;;;;36.52;24.04;100454.14;102578;278;94438;-55
2023/07/05 07:39:18;;;;;;;10.40;9.20;;;;;;;36.94;23.65;100455.95;102606;278;97673;-55
2023/07/05 07:41:55;;;;;;;11.20;10.00;;;;;;;37.39;23.47;100455.04;102551;278;120996;-55
2023/07/05 07:44:37;;;;;;;12.80;9.70;;;;;;;37.36;23.39;100453.30;102579;278;105486;-56
2023/07/05 07:47:14;;;;;;;10.60;9.60;;;;;;;37.73;23.25;100452.36;102571;278;115105;-55
2023/07/05 07:49:58;;;;;;;10.50;9.40;;;;;;;38.08;22.95;100451.84;102575;278;95693;-55
2023/07/05 07:52:34;;;;;;;13.10;10.80;;;;;;;37.96;22.53;100446.41;102554;278;96615;-55
2023/07/05 07:55:11;;;;;;;12.10;10.70;;;;;;;37.74;22.66;100446.69;102402;278;122457;-56
2023/07/05 07:57:46;;;;;;;10.80;9.50;;;;;;;37.85;22.52;100452.09;102517;278;106015;-57
2023/07/05 08:00:23;;;;;;;12.50;9.90;;;;;;;37.83;22.45;100452.44;102521;278;113290;-56
2023/07/05 08:03:01;;;;;;;10.80;9.70;;;;;;;37.84;22.62;100447.45;102497;278;94808;-57
2023/07/05 08:05:39;;;;;;;10.20;9.30;;;;;;;38.32;22.46;100445.48;102504;278;98153;-55
2023/07/05 08:08:23;;;;;;;12.40;9.70;;;;;;;38.39;21.99;100444.73;102372;278;119987;-55
2023/07/05 08:11:01;;;;;;;10.80;9.80;;;;;;;38.49;21.94;100446.68;102567;278;104161;-56
2023/07/05 08:13:40;;;;;;;11.10;10.00;;;;;;;38.53;21.51;100446.29;102559;278;115010;-56
2023/07/05 08:16:17;;;;;;;10.60;9.60;;;;;;;38.26;21.39;100444.77;102573;278;94582;-55
2023/07/05 08:18:58;;;;;;;11.90;10.10;;;;;;;38.44;21.25;100444.51;102650;278;97909;-56
2023/07/05 08:21:43;;;;;;;12.10;10.30;;;;;;;38.68;21.46;100436.70;102562;278;120843;-57
2023/07/05 08:24:21;;;;;;;11.30;10.20;;;;;;;38.76;21.37;100435.00;102617;278;105769;-56
2023/07/05 08:27:04;;;;;;;11.60;10.40;;;;;;;38.63;21.31;100432.26;102441;278;113763;-56
2023/07/05 08:29:44;;;;;;;12.00;10.70;;;;;;;38.77;20.81;100429.20;102558;278;94611;-54
2023/07/05 08:32:26;;;;;;;12.50;11.30;;;;;;;38.67;20.73;100431.30;102603;278;98702;-54
2023/07/05 08:35:07;;;;;;;13.30;11.60;;;;;;;38.66;20.80;100431.02;102551;278;121127;-55
2023/07/05 08:37:48;;;;;;;12.00;10.90;;;;;;;38.59;20.80;100424.20;102606;278;104691;-55
2023/07/05 08:40:33;;;;;;;12.50;11.30;;;;;;;38.75;20.80;100418.02;102552;278;114960;-55
2023/07/05 08:43:17;;;;;;;12.30;11.10;;;;;;;38.92;21.08;100421.01;102369;278;95315;-54
2023/07/05 08:46:00;;;;;;;11.90;10.90;;;;;;;39.19;20.95;100418.60;102558;278;97699;-56
2023/07/05 08:48:38;;;;;;;12.80;11.60;;;;;;;39.42;20.78;100419.11;102598;278;121771;-56
2023/07/05 08:51:23;;;;;;;13.80;12.30;;;;;;;39.51;20.66;100418.02;102501;278;105728;-54
2023/07/05 08:54:04;;;;;;;13.60;12.30;;;;;;;39.57;20.69;100414.55;102527;278;114743;-57
2023/07/05 08:56:48;;;;;;;13.20;11.70;;;;;;;39.26;20.27;100417.59;102525;278;93176;-57
2023/07/05 08:59:39;;;;;;;13.00;11.80;;;;;;;39.14;20.41;100412.39;102488;267;97481;-55
2023/07/05 09:02:22;;;;;;;13.80;12.50;;;;;;;38.66;20.57;100406.02;102536;278;120299;-56
2023/07/05 09:05:13;;;;;;;15.10;13.00;;;;;;;37.96;20.58;100401.13;102586;278;105132;-56
2023/07/05 09:08:05;;;;;;;14.80;13.30;;;;;;;36.99;21.05;100404.40;102556;278;113441;-56
2023/07/05 09:10:56;;;;;;;15.10;12.90;;;;;;;36.05;21.22;100396.45;102578;278;95087;-56
2023/07/05 09:13:44;;;;;;;14.30;13.00;;;;;;;35.50;21.51;100399.55;102548;278;96585;-56
2023/07/05 09:16:34;;;;;;;14.90;13.40;;;;;;;35.11;22.51;100396.91;102596;278;119245;-54
2023/07/05 09:19:20;;;;;;;13.90;12.50;;;;;;;34.83;22.81;100397.33;102524;278;104423;-55
2023/07/05 09:22:04;;;;;;;15.80;14.00;;;;;;;34.29;23.23;100394.11;102561;278;114789;-55
2023/07/05 09:24:45;;;;;;;15.60;14.10;;;;;;;33.97;24.13;100387.38;102542;278;94994;-55
2023/07/05 09:27:26;;;;;;;16.80;14.50;;;;;;;33.99;23.91;100387.86;102578;278;97222;-55
2023/07/05 09:30:06;;;;;;;15.60;13.70;;;;;;;33.94;23.96;100384.18;102558;278;119926;-56
2023/07/05 09:32:49;;;;;;;15.80;13.70;;;;;;;33.90;24.01;100386.60;102546;278;105160;-57
2023/07/05 09:35:26;;;;;;;16.10;14.40;;;;;;;33.76;24.38;100382.39;102512;278;114359;-56
2023/07/05 09:38:16;;;;;;;15.30;13.60;;;;;;;33.67;24.72;100375.02;102476;278;93438;-56
2023/07/05 09:41:04;;;;;;;16.40;14.60;;;;;;;33.76;25.24;100379.02;102577;278;96572;-53
2023/07/05 09:43:49;;;;;;;16.50;14.80;;;;;;;33.88;24.89;100382.34;102537;278;120807;-55
2023/07/05 09:46:37;;;;;;;15.40;13.80;;;;;;;33.69;24.49;100376.27;102568;278;105916;-54
2023/07/05 09:49:18;;;;;;;17.10;14.70;;;;;;;33.60;24.70;100369.66;102520;278;115131;-56
2023/07/05 09:51:54;;;;;;;16.00;14.20;;;;;;;33.47;24.91;100370.88;102535;278;93654;-58
2023/07/05 09:54:32;;;;;;;15.50;14.10;;;;;;;33.44;25.40;100369.79;102581;278;97536;-56
2023/07/05 09:57:09;;;;;;;15.90;14.00;;;;;;;33.44;25.36;100371.23;102501;278;120304;-57
2023/07/05 09:59:50;;;;;;;15.70;14.00;;;;;;;33.42;25.16;100370.10;102568;278;105357;-55
2023/07/05 10:02:35;;;;;;;16.60;14.90;;;;;;;33.53;25.47;100369.19;102572;278;114554;-55
2023/07/05 10:05:28;;;;;;;16.60;15.00;;;;;;;33.84;25.66;100368.19;102610;278;94631;-55
2023/07/05 10:08:15;;;;;;;16.70;15.00;;;;;;;33.86;25.02;100358.16;102587;278;97882;-55
2023/07/05 10:11:04;;;;;;;16.10;14.10;;;;;;;33.80;25.01;100353.07;102616;278;119816;-55
2023/07/05 10:13:41;;;;;;;15.50;13.90;;;;;;;33.57;24.81;100355.02;102636;278;105055;-55
2023/07/05 10:16:18;;;;;;;16.20;14.60;;;;;;;33.15;24.87;100356.82;102584;278;115685;-54
2023/07/05 10:18:55;;;;;;;16.10;14.50;;;;;;;32.71;25.15;100352.61;102576;278;95188;-55
2023/07/05 10:21:33;;;;;;;16.50;14.90;;;;;;;32.63;25.50;100348.38;102561;278;97656;-54
2023/07/05 10:24:13;;;;;;;17.60;13.90;;;;;;;32.69;25.68;100351.83;102568;278;119720;-57
2023/07/05 10:26:53;;;;;;;16.60;14.80;;;;;;;32.42;25.80;100351.32;102577;278;104625;-57
2023/07/05 10:29:33;;;;;;;16.00;14.20;;;;;;;32.15;26.22;100351.19;102536;278;112639;-54
2023/07/05 10:32:20;;;;;;;16.20;14.60;;;;;;;32.10;26.79;100345.32;102555;278;94486;-55
2023/07/05 10:34:59;;;;;;;16.30;14.60;;;;;;;32.18;26.45;100337.39;102547;278;97139;-56
2023/07/05 10:37:39;;;;;;;17.50;15.40;;;;;;;32.02;26.82;100339.61;102486;278;120382;-56
2023/07/05 10:40:16;;;;;;;16.10;14.40;;;;;;;31.92;27.16;100340.67;102568;278;105922;-55
2023/07/05 10:43:01;;;;;;;16.10;14.50;;;;;;;31.76;27.29;100333.73;102531;278;113835;-55
2023/07/05 10:45:36;;;;;;;17.00;15.00;;;;;;;31.62;27.40;100337.54;102545;278;92802;-57
2023/07/05 10:48:28;;;;;;;17.30;15.40;;;;;;;31.63;27.58;100333.23;102560;278;95871;-56
2023/07/05 10:51:21;;;;;;;15.80;14.20;;;;;;;31.89;27.20;100327.42;102447;270;121185;-57
2023/07/05 10:54:11;;;;;;;15.80;14.30;;;;;;;31.75;27.32;100332.29;102540;278;105879;-54
2023/07/05 10:56:49;;;;;;;18.10;15.30;;;;;;;31.63;27.42;100331.95;102589;278;113245;-54
2023/07/05 10:59:38;;;;;;;17.10;15.20;;;;;;;31.73;27.56;100328.09;102576;267;93643;-58
2023/07/05 11:02:42;;;;;;;15.90;14.20;;;;;;;31.67;27.34;100321.48;102509;278;97613;-57
2023/07/05 11:05:32;;;;;;;16.40;14.80;;;;;;;31.86;27.59;100320.83;102520;278;120958;-57
2023/07/05 11:08:19;;;;;;;16.50;14.90;;;;;;;32.09;27.46;100316.74;102464;278;106659;-57
2023/07/05 11:11:15;;;;;;;17.30;15.50;;;;;;;32.35;27.05;100306.73;102501;278;113628;-57
2023/07/05 11:13:55;;;;;;;18.00;14.60;;;;;;;32.59;27.18;100311.38;102535;278;92152;-56
2023/07/05 11:16:35;;;;;;;16.60;15.00;;;;;;;32.73;26.78;100311.69;102550;278;97282;-55
2023/07/05 11:19:17;;;;;;;16.10;14.50;;;;;;;32.76;26.62;100311.11;102533;278;119194;-55
2023/07/05 11:21:54;;;;;;;15.70;14.30;;;;;;;32.60;26.28;100308.82;102475;278;105544;-55
2023/07/05 11:24:47;;;;;;;14.80;13.20;;;;;;;32.43;26.46;100298.27;102532;278;112833;-56
2023/07/05 11:27:53;;;;;;;15.60;14.10;;;;;;;32.26;26.48;100295.48;102512;278;94355;-55
2023/07/05 11:30:44;;;;;;;15.80;14.10;;;;;;;32.32;26.48;100298.39;102582;278;97005;-57
2023/07/05 11:33:22;;;;;;;16.20;14.10;;;;;;;32.31;26.60;100295.45;102547;278;119187;-57
2023/07/05 11:36:00;;;;;;;14.90;13.40;;;;;;;32.37;26.69;100286.63;102606;278;105914;-55
2023/07/05 11:39:07;;;;;;;15.20;13.60;;;;;;;32.27;26.49;100283.23;102547;278;114696;-55
2023/07/05 11:41:48;;;;;;;16.60;13.80;;;;;;;32.24;26.61;100276.80;102048;278;643856;-57
2023/07/05 11:44:32;;;;;;;17.40;13.60;;;;;;;32.07;26.58;100276.65;102508;278;95030;-56
2023/07/05 11:47:11;;;;;;;15.60;14.00;;;;;;;31.77;26.72;100276.70;102421;279;119376;-55
2023/07/05 11:49:47;;;;;;;14.50;13.00;;;;;;;31.83;26.97;100271.07;102440;279;104857;-57
2023/07/05 11:52:29;;;;;;;14.00;12.60;;;;;;;31.85;27.08;100277.84;102377;279;115282;-57
2023/07/05 11:55:20;;;;;;;13.80;12.40;;;;;;;31.97;27.21;100266.73;102419;279;94347;-57
2023/07/05 11:58:02;;;;;;;13.70;12.30;;;;;;;32.21;27.13;100257.89;102407;279;98522;-58
2023/07/05 12:00:50;;;;;;;13.30;12.00;;;;;;;32.38;27.02;100255.48;102407;279;121062;-55
2023/07/05 12:03:31;;;;;;;13.10;11.70;;;;;;;32.26;27.04;100250.45;102401;279;105239;-54
2023/07/05 12:06:20;;;;;;;13.00;11.70;;;;;;;32.17;26.93;100247.98;102349;279;115660;-56
2023/07/05 12:09:04;;;;;;;12.30;11.00;;;;;;;31.99;26.83;100243.90;102420;279;94958;-56
2023/07/05 12:11:41;;;;;;;12.90;11.60;;;;;;;31.64;26.91;100240.51;102389;279;97359;-55